createdAt,value
2022-09-12T00:00:50.977Z,101598.47
2022-09-12T00:03:47.859Z,101592.63
2022-09-12T00:06:45.115Z,101589.41
2022-09-12T00:09:42.254Z,101590.03
2022-09-12T00:12:40.197Z,101590.41
2022-09-12T00:15:43.449Z,101597.88
2022-09-12T00:18:40.641Z,101593.53
2022-09-12T00:21:38.720Z,101588.38
2022-09-12T00:24:35.942Z,101582.09
2022-09-12T00:27:32.909Z,101595.00
2022-09-12T00:30:30.738Z,101579.63
2022-09-12T00:33:27.745Z,101576.97
2022-09-12T00:36:25.410Z,101570.16
2022-09-12T00:39:23.203Z,101568.13
2022-09-12T00:42:20.861Z,101564.00
2022-09-12T00:45:23.293Z,101558.72
2022-09-12T00:48:22.957Z,101567.75
2022-09-12T00:51:20.018Z,101566.53
2022-09-12T00:54:19.385Z,101570.78
2022-09-12T00:57:16.576Z,101565.38
2022-09-12T01:00:16.371Z,101574.25
2022-09-12T01:03:15.424Z,101561.25
2022-09-12T01:06:21.602Z,101555.03
2022-09-12T01:09:21.645Z,101559.47
2022-09-12T01:12:20.002Z,101569.66
2022-09-12T01:15:17.064Z,101562.44
2022-09-12T01:18:19.879Z,101558.22
2022-09-12T01:21:38.480Z,101562.00
2022-09-12T01:25:25.465Z,101555.91
2022-09-12T01:28:53.545Z,101563.28
2022-09-12T01:32:10.535Z,101564.47
2022-09-12T01:35:08.456Z,101559.72
2022-09-12T01:38:09.173Z,101562.69
2022-09-12T01:41:26.045Z,101551.06
2022-09-12T01:44:45.414Z,101553.09
2022-09-12T01:47:48.319Z,101553.53
2022-09-12T01:51:15.753Z,101545.34
2022-09-12T01:54:21.616Z,101543.16
2022-09-12T01:57:25.177Z,101532.84
2022-09-12T02:00:22.207Z,101539.63
2022-09-12T02:03:27.788Z,101527.75
2022-09-12T02:06:40.750Z,101522.00
2022-09-12T02:09:43.690Z,101519.44
2022-09-12T02:12:49.425Z,101519.41
2022-09-12T02:15:50.345Z,101520.00
2022-09-12T02:18:52.467Z,101521.34
2022-09-12T02:21:54.788Z,101524.47
2022-09-12T02:24:55.962Z,101522.59
2022-09-12T02:28:09.157Z,101523.97
2022-09-12T02:31:13.650Z,101517.50
2022-09-12T02:34:22.342Z,101522.47
2022-09-12T02:37:23.833Z,101516.53
2022-09-12T02:40:21.057Z,101508.88
2022-09-12T02:43:18.438Z,101517.78
2022-09-12T02:46:25.844Z,101511.94
2022-09-12T02:49:22.914Z,101504.41
2022-09-12T02:52:20.148Z,101504.13
2022-09-12T02:55:17.249Z,101504.06
2022-09-12T02:58:16.996Z,101509.66
2022-09-12T03:01:16.627Z,101503.75
2022-09-12T03:04:26.350Z,101503.56
2022-09-12T03:07:23.710Z,101502.31
2022-09-12T03:10:36.681Z,101497.53
2022-09-12T03:14:12.422Z,101499.94
2022-09-12T03:17:24.081Z,101494.41
2022-09-12T03:20:48.809Z,101492.00
2022-09-12T03:24:04.443Z,101489.19
2022-09-12T03:27:20.376Z,101485.53
2022-09-12T03:30:18.023Z,101489.72
2022-09-12T03:33:16.785Z,101490.22
2022-09-12T03:36:17.050Z,101498.53
2022-09-12T03:39:13.981Z,101492.19
2022-09-12T03:42:10.976Z,101493.66
2022-09-12T03:45:08.833Z,101497.81
2022-09-12T03:48:06.329Z,101483.00
2022-09-12T03:51:04.230Z,101484.22
2022-09-12T03:54:01.177Z,101486.31
2022-09-12T03:56:58.226Z,101486.09
2022-09-12T03:59:55.256Z,101490.84
2022-09-12T04:02:57.093Z,101490.75
2022-09-12T04:05:54.157Z,101491.50
2022-09-12T04:08:52.273Z,101489.53
2022-09-12T04:11:49.187Z,101495.78
2022-09-12T04:14:46.141Z,101488.28
2022-09-12T04:17:43.065Z,101491.91
2022-09-12T04:20:40.320Z,101488.81
2022-09-12T04:23:38.196Z,101483.47
2022-09-12T04:26:35.307Z,101480.53
2022-09-12T04:29:32.129Z,101485.78
2022-09-12T04:32:31.197Z,101479.94
2022-09-12T04:35:28.006Z,101479.94
2022-09-12T04:38:25.483Z,101476.72
2022-09-12T04:41:36.359Z,101477.97
2022-09-12T04:44:33.009Z,101468.84
2022-09-12T04:47:30.081Z,101473.50
2022-09-12T04:50:27.002Z,101472.94
2022-09-12T04:53:24.259Z,101472.47
2022-09-12T04:56:21.295Z,101467.63
2022-09-12T04:59:19.303Z,101467.53
2022-09-12T05:02:16.324Z,101466.00
2022-09-12T05:05:13.044Z,101468.63
2022-09-12T05:08:10.201Z,101467.84
2022-09-12T05:11:08.850Z,101466.25
2022-09-12T05:14:06.248Z,101467.63
2022-09-12T05:17:04.210Z,101474.13
2022-09-12T05:20:01.834Z,101464.16
2022-09-12T05:22:59.819Z,101459.84
2022-09-12T05:25:58.388Z,101469.72
2022-09-12T05:28:55.185Z,101450.78
2022-09-12T05:31:53.051Z,101455.06
2022-09-12T05:34:50.891Z,101450.38
2022-09-12T05:37:48.065Z,101453.59
2022-09-12T05:40:46.049Z,101448.72
2022-09-12T05:43:43.037Z,101446.31
2022-09-12T05:46:44.304Z,101444.72
2022-09-12T05:49:41.846Z,101437.47
2022-09-12T05:52:39.414Z,101444.38
2022-09-12T05:55:36.740Z,101443.63
2022-09-12T05:58:35.286Z,101451.41
2022-09-12T06:01:33.359Z,101448.88
2022-09-12T06:04:29.885Z,101456.88
2022-09-12T06:07:27.474Z,101451.94
2022-09-12T06:10:26.367Z,101460.47
2022-09-12T06:13:23.174Z,101451.88
2022-09-12T06:16:26.064Z,101462.66
2022-09-12T06:19:23.962Z,101457.03
2022-09-12T06:22:21.359Z,101462.22
2022-09-12T06:25:18.325Z,101456.72
2022-09-12T06:28:15.223Z,101466.75
2022-09-12T06:31:17.278Z,101448.28
2022-09-12T06:34:14.934Z,101459.03
2022-09-12T06:37:11.950Z,101450.34
2022-09-12T06:40:10.274Z,101452.84
2022-09-12T06:43:07.109Z,101460.41
2022-09-12T06:46:04.472Z,101463.66
2022-09-12T06:49:02.424Z,101459.19
2022-09-12T06:52:00.091Z,101454.84
2022-09-12T06:54:57.077Z,101460.56
2022-09-12T06:57:55.466Z,101452.56
2022-09-12T07:00:56.010Z,101453.41
2022-09-12T07:04:00.204Z,101448.59
2022-09-12T07:06:57.356Z,101458.59
2022-09-12T07:09:54.393Z,101459.97
2022-09-12T07:12:51.140Z,101458.06
2022-09-12T07:15:48.082Z,101459.38
2022-09-12T07:18:46.493Z,101461.63
2022-09-12T07:21:43.110Z,101449.13
2022-09-12T07:24:41.296Z,101445.03
2022-09-12T07:27:38.268Z,101442.19
2022-09-12T07:30:36.778Z,101437.09
2022-09-12T07:33:34.046Z,101452.25
2022-09-12T07:36:31.292Z,101443.25
2022-09-12T07:39:28.281Z,101446.47
2022-09-12T07:42:25.193Z,101452.38
2022-09-12T07:45:22.198Z,101442.66
2022-09-12T07:48:19.377Z,101447.66
2022-09-12T07:51:17.389Z,101446.91
2022-09-12T07:54:14.737Z,101441.16
2022-09-12T07:57:12.416Z,101450.16
2022-09-12T08:00:10.901Z,101454.34
2022-09-12T08:03:10.553Z,101446.28
2022-09-12T08:06:11.587Z,101457.88
2022-09-12T08:09:09.307Z,101449.72
2022-09-12T08:12:06.309Z,101441.44
2022-09-12T08:15:06.387Z,101444.56
2022-09-12T08:18:03.270Z,101441.84
2022-09-12T08:21:00.788Z,101447.94
2022-09-12T08:24:03.760Z,101455.34
2022-09-12T08:27:01.307Z,101453.09
2022-09-12T08:29:58.556Z,101452.78
2022-09-12T08:32:55.277Z,101449.09
2022-09-12T08:35:52.171Z,101439.78
2022-09-12T08:38:50.916Z,101449.75
2022-09-12T08:41:49.179Z,101433.81
2022-09-12T08:45:16.014Z,101433.47
2022-09-12T08:48:13.158Z,101433.38
2022-09-12T08:51:10.892Z,101434.56
2022-09-12T08:54:17.425Z,101441.28
2022-09-12T08:57:15.110Z,101433.09
2022-09-12T09:00:16.061Z,101427.19
2022-09-12T09:03:45.742Z,101419.00
2022-09-12T09:06:53.983Z,101421.50
2022-09-12T09:10:47.198Z,101425.06
2022-09-12T09:14:05.224Z,101433.06
2022-09-12T09:17:02.359Z,101441.91
2022-09-12T09:20:27.866Z,101433.38
2022-09-12T09:23:31.107Z,101434.34
2022-09-12T09:26:31.726Z,101440.78
2022-09-12T09:29:44.625Z,101436.38
2022-09-12T09:32:42.277Z,101431.88
2022-09-12T09:35:44.896Z,101427.28
2022-09-12T09:38:54.758Z,101426.94
2022-09-12T09:42:30.085Z,101427.00
2022-09-12T09:45:30.325Z,101416.47
2022-09-12T09:48:44.708Z,101412.84
2022-09-12T09:51:42.288Z,101412.06
2022-09-12T09:54:59.897Z,101408.03
2022-09-12T09:57:57.326Z,101410.16
2022-09-12T10:00:58.892Z,101411.41
2022-09-12T10:03:56.425Z,101401.59
2022-09-12T10:07:00.790Z,101400.81
2022-09-12T10:10:05.783Z,101400.41
2022-09-12T10:13:18.334Z,101404.19
2022-09-12T10:16:23.685Z,101389.84
2022-09-12T10:19:25.526Z,101393.50
2022-09-12T10:22:24.289Z,101397.22
2022-09-12T10:25:21.597Z,101381.25
2022-09-12T10:28:40.486Z,101383.69
2022-09-12T10:31:52.349Z,101375.44
2022-09-12T10:34:51.314Z,101373.41
2022-09-12T10:38:03.080Z,101373.00
2022-09-12T10:41:10.369Z,101369.72
2022-09-12T10:44:18.550Z,101373.84
2022-09-12T10:47:24.499Z,101368.44
2022-09-12T10:50:26.755Z,101365.56
2022-09-12T10:53:33.753Z,101360.94
2022-09-12T10:56:32.723Z,101363.66
2022-09-12T11:00:18.217Z,101352.59
2022-09-12T11:03:17.015Z,101338.25
2022-09-12T11:06:15.301Z,101344.00
2022-09-12T11:09:40.572Z,101342.31
2022-09-12T11:12:59.448Z,101341.41
2022-09-12T11:15:59.868Z,101343.75
2022-09-12T11:19:25.334Z,101336.78
2022-09-12T11:23:09.038Z,101331.44
2022-09-12T11:26:15.349Z,101335.09
2022-09-12T11:29:36.887Z,101325.16
2022-09-12T11:32:39.347Z,101313.03
2022-09-12T11:35:42.010Z,101316.56
2022-09-12T11:39:05.555Z,101310.72
2022-09-12T11:42:03.376Z,101305.72
2022-09-12T11:45:40.569Z,101310.03
2022-09-12T11:49:02.354Z,101308.81
2022-09-12T11:52:17.139Z,101301.78
2022-09-12T11:55:19.019Z,101301.06
2022-09-12T11:58:16.791Z,101307.88
2022-09-12T12:01:17.587Z,101306.03
2022-09-12T12:04:15.950Z,101301.78
2022-09-12T12:07:13.505Z,101295.78
2022-09-12T12:10:27.844Z,101283.28
2022-09-12T12:13:34.286Z,101294.38
2022-09-12T12:16:35.274Z,101290.25
2022-09-12T12:19:36.347Z,101286.22
2022-09-12T12:22:33.822Z,101282.59
2022-09-12T12:25:50.716Z,101280.59
2022-09-12T12:28:51.197Z,101281.91
2022-09-12T12:32:02.029Z,101268.38
2022-09-12T12:35:11.273Z,101262.94
2022-09-12T12:38:36.240Z,101257.66
2022-09-12T12:41:42.974Z,101250.13
2022-09-12T12:44:47.363Z,101253.69
2022-09-12T12:47:44.967Z,101246.41
2022-09-12T12:50:42.708Z,101243.16
2022-09-12T12:53:40.670Z,101246.72
2022-09-12T12:56:42.067Z,101248.06
2022-09-12T12:59:47.333Z,101246.97
2022-09-12T13:02:56.049Z,101239.19
2022-09-12T13:05:57.575Z,101231.91
2022-09-12T13:09:08.386Z,101227.41
2022-09-12T13:12:25.297Z,101244.22
2022-09-12T13:15:38.201Z,101242.66
2022-09-12T13:18:48.717Z,101241.44
2022-09-12T13:21:55.857Z,101227.34
2022-09-12T13:24:53.688Z,101220.16
2022-09-12T13:27:57.776Z,101214.59
2022-09-12T13:31:09.152Z,101211.94
2022-09-12T13:34:06.897Z,101201.50
2022-09-12T13:37:28.918Z,101209.63
2022-09-12T13:41:05.859Z,101206.34
2022-09-12T13:44:02.642Z,101203.25
2022-09-12T13:46:59.726Z,101189.97
2022-09-12T13:49:56.637Z,101200.28
2022-09-12T13:52:55.702Z,101195.25
2022-09-12T13:55:54.529Z,101192.16
2022-09-12T13:58:58.884Z,101188.13
2022-09-12T14:01:56.729Z,101186.84
2022-09-12T14:05:10.401Z,101183.69
2022-09-12T14:08:08.436Z,101174.81
2022-09-12T14:11:08.853Z,101165.00
2022-09-12T14:14:06.614Z,101160.56
2022-09-12T14:17:23.981Z,101157.94
2022-09-12T14:20:23.424Z,101159.72
2022-09-12T14:23:31.024Z,101152.81
2022-09-12T14:26:34.177Z,101159.00
2022-09-12T14:29:33.360Z,101149.41
2022-09-12T14:32:30.708Z,101144.16
2022-09-12T14:35:27.253Z,101136.22
2022-09-12T14:38:45.037Z,101133.28
2022-09-12T14:41:42.342Z,101132.75
2022-09-12T14:44:39.535Z,101135.88
2022-09-12T14:47:39.967Z,101138.81
2022-09-12T14:50:37.513Z,101134.56
2022-09-12T14:53:36.070Z,101125.88
2022-09-12T14:56:40.891Z,101121.88
2022-09-12T14:59:40.819Z,101127.56
2022-09-12T15:02:37.655Z,101118.66
2022-09-12T15:05:34.385Z,101121.09
2022-09-12T15:08:31.804Z,101122.16
2022-09-12T15:11:28.887Z,101108.16
2022-09-12T15:14:25.915Z,101115.78
2022-09-12T15:17:22.466Z,101114.00
2022-09-12T15:20:19.532Z,101109.41
2022-09-12T15:23:28.703Z,101119.78
2022-09-12T15:26:27.617Z,101126.09
2022-09-12T15:29:24.442Z,101124.28
2022-09-12T15:32:29.757Z,101117.69
2022-09-12T15:35:32.859Z,101119.34
2022-09-12T15:38:29.919Z,101115.94
2022-09-12T15:41:32.338Z,101116.53
2022-09-12T15:44:29.506Z,101115.59
2022-09-12T15:47:26.454Z,101112.03
2022-09-12T15:50:23.621Z,101107.94
2022-09-12T15:53:20.814Z,101105.13
2022-09-12T15:56:19.445Z,101109.84
2022-09-12T15:59:16.462Z,101112.06
2022-09-12T16:02:14.097Z,101107.13
2022-09-12T16:05:17.126Z,101105.94
2022-09-12T16:08:14.811Z,101101.72
2022-09-12T16:11:20.168Z,101090.00
2022-09-12T16:14:18.496Z,101097.19
2022-09-12T16:17:15.402Z,101094.22
2022-09-12T16:20:13.050Z,101081.25
2022-09-12T16:23:13.510Z,101074.13
2022-09-12T16:26:10.637Z,101075.34
2022-09-12T16:29:07.678Z,101078.94
2022-09-12T16:32:05.134Z,101072.94
2022-09-12T16:35:02.909Z,101058.16
2022-09-12T16:38:00.530Z,101067.75
2022-09-12T16:41:04.607Z,101061.00
2022-09-12T16:44:01.734Z,101062.06
2022-09-12T16:46:58.417Z,101054.53
2022-09-12T16:49:55.822Z,101052.31
2022-09-12T16:52:52.776Z,101042.97
2022-09-12T16:55:50.051Z,101041.56
2022-09-12T16:58:48.017Z,101044.31
2022-09-12T17:01:45.318Z,101039.13
2022-09-12T17:04:42.630Z,101042.53
2022-09-12T17:07:39.610Z,101047.66
2022-09-12T17:10:40.948Z,101039.00
2022-09-12T17:14:02.625Z,101034.56
2022-09-12T17:16:55.730Z,101040.41
2022-09-12T17:19:53.726Z,101039.13
2022-09-12T17:22:50.852Z,101033.50
2022-09-12T17:25:48.465Z,101036.31
2022-09-12T17:28:45.883Z,101028.19
2022-09-12T17:31:43.066Z,101029.50
2022-09-12T17:34:40.900Z,101023.06
2022-09-12T17:37:37.871Z,101015.94
2022-09-12T17:40:58.438Z,101016.16
2022-09-12T17:43:57.261Z,101012.94
2022-09-12T17:46:54.750Z,101009.88
2022-09-12T17:50:05.177Z,101002.22
2022-09-12T17:53:10.898Z,101003.56
2022-09-12T17:56:07.934Z,101001.25
2022-09-12T17:59:05.033Z,100996.84
2022-09-12T18:02:13.881Z,101000.34
2022-09-12T18:05:11.009Z,100992.63
2022-09-12T18:08:07.441Z,100990.19
2022-09-12T18:11:05.668Z,100999.75
2022-09-12T18:14:02.945Z,100994.44
2022-09-12T18:17:00.338Z,101001.94
2022-09-12T18:19:57.716Z,100996.25
2022-09-12T18:22:54.992Z,100995.44
2022-09-12T18:25:57.698Z,100988.97
2022-09-12T18:28:55.298Z,100989.88
2022-09-12T18:31:52.900Z,100986.53
2022-09-12T18:34:50.040Z,100991.13
2022-09-12T18:37:47.171Z,100994.03
2022-09-12T18:40:45.206Z,100994.91
2022-09-12T18:43:43.510Z,100993.31
2022-09-12T18:46:41.073Z,100997.28
2022-09-12T18:49:38.354Z,100988.09
2022-09-12T18:52:35.929Z,100989.38
2022-09-12T18:55:33.247Z,100993.28
2022-09-12T18:58:30.978Z,100991.69
2022-09-12T19:01:32.530Z,100992.13
2022-09-12T19:04:30.004Z,100987.34
2022-09-12T19:07:27.070Z,100980.16
2022-09-12T19:10:25.699Z,100989.72
2022-09-12T19:13:23.119Z,100981.69
2022-09-12T19:16:25.144Z,100984.28
2022-09-12T19:19:23.618Z,100971.63
2022-09-12T19:22:21.098Z,100987.50
2022-09-12T19:25:18.880Z,100976.78
2022-09-12T19:28:16.238Z,100976.84
2022-09-12T19:31:15.375Z,100962.94
2022-09-12T19:34:13.592Z,100960.56
2022-09-12T19:37:10.894Z,100967.91
2022-09-12T19:40:08.872Z,100978.03
2022-09-12T19:43:09.261Z,100973.56
2022-09-12T19:46:06.993Z,100967.44
2022-09-12T19:49:04.526Z,100965.06
2022-09-12T19:52:02.225Z,100964.31
2022-09-12T19:54:59.986Z,100957.75
2022-09-12T19:57:56.601Z,100958.22
2022-09-12T20:00:54.697Z,100961.50
2022-09-12T20:03:53.804Z,100936.97
2022-09-12T20:06:50.807Z,100938.69
2022-09-12T20:09:47.929Z,100932.53
2022-09-12T20:12:45.019Z,100927.19
2022-09-12T20:15:42.187Z,100933.38
2022-09-12T20:18:39.688Z,100923.19
2022-09-12T20:21:36.849Z,100918.75
2022-09-12T20:24:34.143Z,100913.44
2022-09-12T20:27:31.771Z,100906.97
2022-09-12T20:30:29.028Z,100913.13
2022-09-12T20:33:25.916Z,100912.72
2022-09-12T20:36:22.739Z,100912.66
2022-09-12T20:39:21.430Z,100904.06
2022-09-12T20:42:18.927Z,100901.22
2022-09-12T20:45:15.964Z,100889.84
2022-09-12T20:48:14.372Z,100887.44
2022-09-12T20:51:12.287Z,100886.25
2022-09-12T20:54:10.494Z,100882.97
2022-09-12T20:57:07.837Z,100885.00
2022-09-12T21:00:07.243Z,100887.44
2022-09-12T21:03:05.240Z,100904.56
2022-09-12T21:06:02.011Z,100894.28
2022-09-12T21:08:59.909Z,100886.50
2022-09-12T21:11:57.173Z,100884.31
2022-09-12T21:14:54.823Z,100879.84
2022-09-12T21:17:52.418Z,100870.84
2022-09-12T21:20:53.919Z,100857.03
2022-09-12T21:23:51.106Z,100850.97
2022-09-12T21:26:47.832Z,100847.31
2022-09-12T21:29:45.052Z,100844.06
2022-09-12T21:32:42.168Z,100843.28
2022-09-12T21:35:39.207Z,100848.22
2022-09-12T21:38:35.939Z,100856.75
2022-09-12T21:41:34.452Z,100856.72
2022-09-12T21:44:31.803Z,100845.25
2022-09-12T21:47:28.798Z,100850.97
2022-09-12T21:50:28.488Z,100838.31
2022-09-12T21:53:25.983Z,100828.97
2022-09-12T21:56:23.497Z,100842.44
2022-09-12T21:59:21.134Z,100853.31
2022-09-12T22:02:17.676Z,100863.41
2022-09-12T22:05:15.358Z,100865.00
2022-09-12T22:08:13.167Z,100859.31
2022-09-12T22:11:10.138Z,100842.22
2022-09-12T22:14:07.046Z,100834.97
2022-09-12T22:17:04.239Z,100830.59
2022-09-12T22:20:01.048Z,100824.50
2022-09-12T22:23:16.394Z,100817.16
2022-09-12T22:26:14.293Z,100829.38
2022-09-12T22:29:11.315Z,100842.06
2022-09-12T22:32:07.887Z,100839.16
2022-09-12T22:35:06.283Z,100850.88
2022-09-12T22:38:02.981Z,100833.75
2022-09-12T22:41:04.157Z,100830.94
2022-09-12T22:44:01.070Z,100821.94
2022-09-12T22:46:58.127Z,100822.75
2022-09-12T22:49:54.870Z,100810.50
2022-09-12T22:52:52.673Z,100810.16
2022-09-12T22:55:50.541Z,100797.50
2022-09-12T22:58:48.152Z,100809.34
2022-09-12T23:01:45.219Z,100809.34
2022-09-12T23:04:42.207Z,100802.38
2022-09-12T23:07:39.056Z,100821.50
2022-09-12T23:10:36.844Z,100811.28
2022-09-12T23:13:33.967Z,100822.66
2022-09-12T23:16:32.204Z,100813.59
2022-09-12T23:19:29.441Z,100808.75
2022-09-12T23:22:27.051Z,100814.53
2022-09-12T23:25:24.310Z,100812.53
2022-09-12T23:28:21.536Z,100820.66
2022-09-12T23:31:19.715Z,100817.88
2022-09-12T23:34:17.236Z,100808.50
2022-09-12T23:37:14.580Z,100801.56
2022-09-12T23:40:12.306Z,100806.41
2022-09-12T23:43:10.242Z,100815.16
2022-09-12T23:46:07.486Z,100816.63
2022-09-12T23:49:05.046Z,100804.44
2022-09-12T23:52:02.148Z,100811.78
2022-09-12T23:54:58.879Z,100806.47
2022-09-12T23:57:56.377Z,100818.69
